Kanazawa, Japan
Current Conditions -  °F | °C
As of 1:00 PM on Saturday 20 Dec 2014 (Local Time) from RJNK Reporting Station
Light Rain Light Rain  
Wind Chill: 39°   Ceiling: 7000
Heat Index: 43°   Visibility: 6mi
Dew Point: 36°   Wind: 7mph
Humidity: 76%   Direction: 10°N
Pressure: 29.85"   Gusts: NA
Location:  36.56°N, 136.64°E
Report Text: RJNK 200400Z 01006KT 330V040 9999 -RA FEW050 BKN070 OVC130 06/02 Q1011
Loading
Personal Weather Stations






























Interactive Weather Map New forecast layout! Learn more

10-Day Weather Forecast

Advertisements
Track Severe Weather on mobile